Time;durP1;ratioP1;P1;durP2;ratioP2;P2;SDS_P1;SDS_P2;PMS_P1;PMS_P2;Temp;Humidity;BMP_temperature;BMP_pressure;BME280_temperature;BME280_humidity;BME280_pressure;Samples;Min_cycle;Max_cycle;Signal;HPM_P1;HPM_P2
2023/09/05 00:01:32;;;;;;;6.32;3.90;;;;;;;16.97;72.33;102379.19;7389906;19;19926;-68
2023/09/05 00:04:20;;;;;;;5.28;4.50;;;;;;;16.92;72.16;102384.34;7395164;19;19934;-68
2023/09/05 00:06:49;;;;;;;5.82;4.50;;;;;;;16.91;72.40;102388.13;7396726;19;19942;-68
2023/09/05 00:09:19;;;;;;;6.55;4.25;;;;;;;16.88;72.48;102382.16;7395565;19;19927;-68
2023/09/05 00:11:50;;;;;;;6.90;4.70;;;;;;;16.88;72.39;102385.72;7398772;19;19923;-69
2023/09/05 00:14:20;;;;;;;7.32;4.40;;;;;;;16.87;72.66;102381.31;7394461;19;19926;-69
2023/09/05 00:17:11;;;;;;;4.65;3.75;;;;;;;16.84;72.68;102376.22;7395213;19;20239;-69
2023/09/05 00:19:40;;;;;;;5.05;4.15;;;;;;;16.83;72.85;102381.88;7397734;19;19923;-68
2023/09/05 00:22:09;;;;;;;5.47;3.70;;;;;;;16.79;72.98;102381.38;7394711;19;19915;-68
2023/09/05 00:24:39;;;;;;;6.45;4.60;;;;;;;16.79;73.33;102374.06;7391665;19;20371;-69
2023/09/05 00:27:09;;;;;;;6.18;4.65;;;;;;;16.78;73.32;102380.50;7396279;19;19930;-68
2023/09/05 00:29:58;;;;;;;5.60;4.63;;;;;;;16.74;73.79;102381.91;7396394;19;19922;-68
2023/09/05 00:32:49;;;;;;;5.40;4.30;;;;;;;16.72;74.07;102377.69;7394058;19;19922;-68
2023/09/05 00:35:18;;;;;;;6.53;4.50;;;;;;;16.70;73.90;102377.00;7396679;19;19926;-68
2023/09/05 00:37:48;;;;;;;7.45;4.43;;;;;;;16.69;73.94;102378.06;7395171;19;20270;-68
2023/09/05 00:40:19;;;;;;;6.57;4.55;;;;;;;16.66;73.91;102379.25;7397729;19;19994;-69
2023/09/05 00:42:47;;;;;;;6.68;4.22;;;;;;;16.62;73.86;102374.34;7394591;19;19957;-69
2023/09/05 00:45:17;;;;;;;6.97;4.40;;;;;;;16.61;73.80;102370.78;7395133;19;19922;-68
2023/09/05 00:48:09;;;;;;;8.23;5.35;;;;;;;16.58;74.41;102365.69;7394476;19;19919;-68
2023/09/05 00:50:40;;;;;;;6.68;4.47;;;;;;;16.59;73.84;102363.81;7393408;19;19927;-69
2023/09/05 00:53:09;;;;;;;7.07;5.03;;;;;;;16.62;73.99;102358.00;7391161;19;19933;-69
2023/09/05 00:55:37;;;;;;;6.03;4.50;;;;;;;16.63;74.02;102363.28;7397897;19;19919;-68
2023/09/05 00:58:06;;;;;;;8.07;4.25;;;;;;;16.62;73.95;102360.75;7393788;19;19922;-68
2023/09/05 01:00:56;;;;;;;5.18;4.32;;;;;;;16.57;74.26;102361.28;7393905;19;19933;-68
2023/09/05 01:03:28;;;;;;;8.13;4.85;;;;;;;16.58;73.92;102357.53;7395977;19;19934;-69
2023/09/05 01:06:04;;;;;;;6.38;4.38;;;;;;;16.62;73.66;102358.00;7393381;19;19930;-69
2023/09/05 01:08:40;;;;;;;7.57;5.47;;;;;;;16.66;73.50;102357.47;7394070;19;20505;-68
2023/09/05 01:11:29;;;;;;;8.00;5.15;;;;;;;16.65;73.52;102353.06;7393443;19;19956;-68
2023/09/05 01:13:58;;;;;;;5.93;5.03;;;;;;;16.67;73.76;102355.59;7400945;19;19946;-68
2023/09/05 01:16:26;;;;;;;7.00;4.82;;;;;;;16.66;74.02;102360.19;7402669;19;19942;-69
2023/09/05 01:18:58;;;;;;;6.75;4.82;;;;;;;16.64;74.15;102366.88;7401378;19;19946;-68
2023/09/05 01:21:35;;;;;;;7.82;5.28;;;;;;;16.63;73.81;102357.00;7402971;19;19914;-68
2023/09/05 01:24:17;;;;;;;10.77;5.22;;;;;;;16.56;74.00;102356.84;7401913;19;19919;-68
2023/09/05 01:26:47;;;;;;;6.85;4.80;;;;;;;16.62;73.51;102350.69;7400025;19;19925;-68
2023/09/05 01:29:18;;;;;;;7.75;5.07;;;;;;;16.60;73.67;102349.19;7401720;19;19915;-68
2023/09/05 01:31:48;;;;;;;7.43;5.18;;;;;;;16.56;74.16;102347.84;7400359;19;20351;-68
2023/09/05 01:34:17;;;;;;;5.35;4.35;;;;;;;16.55;74.04;102341.53;7402070;19;20292;-69
2023/09/05 01:37:06;;;;;;;9.60;4.88;;;;;;;16.51;74.32;102339.38;7397726;19;19926;-68
2023/09/05 01:39:38;;;;;;;6.65;4.80;;;;;;;16.47;74.26;102338.88;7400240;19;19982;-69
2023/09/05 01:42:07;;;;;;;6.32;4.50;;;;;;;16.42;74.46;102337.72;7398629;19;20264;-68
2023/09/05 01:44:38;;;;;;;6.53;4.18;;;;;;;16.41;74.53;102338.75;7398918;19;19923;-68
2023/09/05 01:47:07;;;;;;;7.07;4.75;;;;;;;16.39;75.43;102329.94;7400699;19;20319;-68
2023/09/05 01:49:36;;;;;;;6.63;4.68;;;;;;;16.39;74.74;102338.09;7400130;19;19927;-69
2023/09/05 01:52:05;;;;;;;5.82;4.32;;;;;;;16.39;74.72;102338.09;7402441;19;19918;-68
2023/09/05 01:54:40;;;;;;;9.20;5.05;;;;;;;16.37;74.91;102340.97;7397991;19;19930;-68
2023/09/05 01:57:09;;;;;;;7.38;5.10;;;;;;;16.33;75.04;102328.75;7397434;19;19922;-68
2023/09/05 01:59:37;;;;;;;5.95;4.57;;;;;;;16.31;75.14;102333.53;7396621;19;19918;-69
2023/09/05 02:02:06;;;;;;;5.82;4.53;;;;;;;16.28;75.35;102329.31;7396803;19;19927;-68
2023/09/05 02:04:35;;;;;;;5.95;4.38;;;;;;;16.27;75.56;102319.44;7398686;19;19919;-68
2023/09/05 02:07:03;;;;;;;7.00;4.72;;;;;;;16.29;75.48;102322.00;7397392;19;20186;-68
2023/09/05 02:09:33;;;;;;;6.68;5.18;;;;;;;16.29;75.52;102322.00;7398441;19;19933;-68
2023/09/05 02:12:05;;;;;;;7.82;5.10;;;;;;;16.30;75.45;102323.69;7399778;19;19922;-68
2023/09/05 02:14:35;;;;;;;7.57;5.97;;;;;;;16.28;75.58;102315.69;7399036;19;19922;-68
2023/09/05 02:17:04;;;;;;;7.25;5.00;;;;;;;16.26;75.57;102325.94;7400266;19;20345;-68
2023/09/05 02:19:33;;;;;;;8.68;4.47;;;;;;;16.25;75.20;102320.66;7400905;19;19930;-68
2023/09/05 02:22:02;;;;;;;9.10;5.18;;;;;;;16.23;75.39;102318.09;7397814;19;20288;-69
2023/09/05 02:24:52;;;;;;;6.63;5.10;;;;;;;16.21;75.18;102316.59;7396259;19;19944;-68
2023/09/05 02:27:43;;;;;;;;;;;;;;;15.92;77.00;102314.53;7396770;19;19956;-69
2023/09/05 02:30:12;;;;;;;6.18;5.05;;;;;;;16.08;76.01;102316.34;7398465;19;20351;-68
2023/09/05 02:32:43;;;;;;;9.20;5.20;;;;;;;16.07;75.71;102320.91;7398792;19;19958;-68
2023/09/05 02:35:14;;;;;;;8.88;5.10;;;;;;;16.06;75.62;102315.66;7400580;19;19918;-68
2023/09/05 02:37:42;;;;;;;6.70;4.90;;;;;;;16.04;75.66;102315.84;7395778;19;20277;-68
2023/09/05 02:40:13;;;;;;;6.72;5.38;;;;;;;16.01;75.89;102308.03;7399764;19;20258;-68
2023/09/05 02:43:04;;;;;;;7.18;4.82;;;;;;;15.98;75.97;102308.41;7396463;19;19937;-68
2023/09/05 02:45:53;;;;;;;7.10;4.78;;;;;;;15.95;75.86;102302.47;7397503;19;19918;-68
2023/09/05 02:48:22;;;;;;;8.70;5.13;;;;;;;15.93;76.24;102313.50;7390826;19;19937;-69
2023/09/05 02:50:51;;;;;;;6.60;5.30;;;;;;;15.93;75.93;102310.78;7392972;19;19922;-68
2023/09/05 02:53:20;;;;;;;7.35;5.43;;;;;;;15.89;76.09;102312.16;7399006;19;19918;-68
2023/09/05 02:56:08;;;;;;;7.32;5.32;;;;;;;15.85;75.95;102308.09;7398641;19;19930;-69
2023/09/05 02:58:39;;;;;;;8.75;5.35;;;;;;;15.84;76.18;102311.84;7397986;19;19926;-68
2023/09/05 03:01:11;;;;;;;7.05;5.07;;;;;;;15.80;76.86;102308.63;7399268;19;19927;-68
2023/09/05 03:04:00;;;;;;;6.47;5.55;;;;;;;15.76;77.14;102303.72;7397261;19;19923;-68
2023/09/05 03:06:28;;;;;;;7.85;5.72;;;;;;;15.71;77.38;102304.25;7400379;19;19954;-68
2023/09/05 03:08:57;;;;;;;10.90;6.40;;;;;;;15.70;77.02;102294.44;7398078;19;19919;-68
2023/09/05 03:11:25;;;;;;;8.57;5.05;;;;;;;15.72;77.10;102303.25;7399042;19;19925;-69
2023/09/05 03:13:57;;;;;;;6.60;5.30;;;;;;;15.72;77.14;102302.38;7400029;19;19926;-68
2023/09/05 03:16:45;;;;;;;8.63;6.40;;;;;;;15.66;77.16;102290.34;7397458;19;19923;-68
2023/09/05 03:19:15;;;;;;;9.13;5.65;;;;;;;15.66;77.09;102297.69;7398425;19;19955;-68
2023/09/05 03:21:43;;;;;;;7.72;6.00;;;;;;;15.62;77.52;102297.16;7399267;19;20248;-68
2023/09/05 03:24:17;;;;;;;9.10;6.65;;;;;;;15.61;77.72;102295.47;7400773;19;19923;-68
2023/09/05 03:26:48;;;;;;;8.57;5.93;;;;;;;15.62;77.46;102288.19;7399240;19;19923;-69
2023/09/05 03:29:39;;;;;;;8.85;5.68;;;;;;;15.62;77.33;102290.91;7392979;19;19936;-69
2023/09/05 03:32:27;;;;;;;9.13;5.47;;;;;;;15.61;77.32;102287.34;7395707;19;19951;-68
2023/09/05 03:34:56;;;;;;;9.40;5.65;;;;;;;15.62;77.28;102288.19;7396835;19;20263;-68
2023/09/05 03:37:25;;;;;;;8.98;5.85;;;;;;;15.62;77.40;102285.47;7393255;19;19925;-68
2023/09/05 03:39:53;;;;;;;8.27;5.32;;;;;;;15.59;77.37;102289.38;7391935;19;19918;-68
2023/09/05 03:42:22;;;;;;;9.43;5.90;;;;;;;15.53;77.64;102281.94;7397110;19;19926;-68
2023/09/05 03:44:54;;;;;;;8.88;6.22;;;;;;;15.50;77.76;102281.38;7395639;19;19923;-68
2023/09/05 03:47:23;;;;;;;8.82;6.30;;;;;;;15.42;78.23;102285.81;7386848;19;19950;-68
2023/09/05 03:49:52;;;;;;;8.50;5.88;;;;;;;15.41;77.63;102283.28;7377306;19;20042;-69
2023/09/05 03:52:20;;;;;;;8.48;6.10;;;;;;;15.37;77.98;102279.22;7390791;19;19918;-68
2023/09/05 03:54:49;;;;;;;9.43;6.65;;;;;;;15.35;77.83;102278.56;7393460;19;19929;-69
2023/09/05 03:57:18;;;;;;;7.78;6.47;;;;;;;15.29;78.36;102274.66;7393112;19;19940;-68
2023/09/05 03:59:46;;;;;;;7.95;5.72;;;;;;;15.25;78.38;102283.31;7387844;19;20881;-68
2023/09/05 04:02:18;;;;;;;11.10;6.65;;;;;;;15.23;78.24;102271.81;7395364;19;19923;-68
2023/09/05 04:04:46;;;;;;;8.05;5.72;;;;;;;15.22;78.23;102275.53;7399859;19;20343;-68
2023/09/05 04:07:15;;;;;;;7.38;5.78;;;;;;;15.21;78.57;102276.53;7394325;19;20266;-68
2023/09/05 04:09:43;;;;;;;7.03;5.93;;;;;;;15.18;78.66;102275.03;7398643;19;19930;-68
2023/09/05 04:12:12;;;;;;;9.85;5.65;;;;;;;15.18;78.74;102276.91;7398945;19;19931;-68
2023/09/05 04:14:41;;;;;;;8.15;5.78;;;;;;;15.12;78.72;102272.16;7396218;19;19926;-68
2023/09/05 04:17:09;;;;;;;10.27;5.93;;;;;;;15.09;78.69;102280.66;7396951;19;19927;-68
2023/09/05 04:19:40;;;;;;;8.68;5.85;;;;;;;15.07;78.73;102282.66;7397336;19;20382;-68
2023/09/05 04:22:09;;;;;;;8.32;5.70;;;;;;;15.03;78.85;102275.91;7397982;19;19945;-68
2023/09/05 04:24:37;;;;;;;10.10;6.43;;;;;;;15.01;78.98;102281.50;7396909;19;20327;-68
2023/09/05 04:27:07;;;;;;;7.90;5.78;;;;;;;15.00;79.12;102285.25;7398429;19;19946;-69
2023/09/05 04:29:56;;;;;;;7.68;5.45;;;;;;;14.93;79.08;102276.06;7396414;19;20320;-69
2023/09/05 04:32:44;;;;;;;8.73;5.63;;;;;;;14.89;79.09;102272.84;7394555;19;19929;-68
2023/09/05 04:35:16;;;;;;;9.68;6.18;;;;;;;14.87;79.43;102277.63;7395444;19;19955;-68
2023/09/05 04:37:44;;;;;;;8.77;5.82;;;;;;;14.84;79.42;102271.69;7394003;19;19926;-68
2023/09/05 04:40:14;;;;;;;8.75;5.63;;;;;;;14.83;79.37;102272.72;7396490;19;19938;-68
2023/09/05 04:42:43;;;;;;;9.10;6.13;;;;;;;14.84;79.54;102275.22;7395616;19;19922;-68
2023/09/05 04:45:12;;;;;;;8.15;5.90;;;;;;;14.86;79.51;102269.66;7397849;19;20477;-68
2023/09/05 04:47:41;;;;;;;8.35;5.75;;;;;;;14.85;79.30;102276.94;7395265;19;19929;-69
2023/09/05 04:50:10;;;;;;;7.88;5.40;;;;;;;14.87;79.28;102282.19;7395927;19;19915;-68
2023/09/05 04:52:42;;;;;;;8.55;6.38;;;;;;;14.84;79.72;102279.84;7396891;19;19932;-68
2023/09/05 04:55:11;;;;;;;7.07;5.10;;;;;;;14.81;79.47;102278.28;7393242;19;20280;-68
2023/09/05 04:57:42;;;;;;;15.57;5.72;;;;;;;14.82;79.58;102284.56;7393365;19;20442;-68
2023/09/05 05:00:13;;;;;;;7.95;5.97;;;;;;;14.79;79.79;102287.63;7396539;19;19933;-68
2023/09/05 05:02:42;;;;;;;7.10;5.15;;;;;;;14.78;79.93;102286.78;7393532;19;20356;-68
2023/09/05 05:05:11;;;;;;;7.82;6.18;;;;;;;14.77;79.90;102282.38;7389978;19;19923;-68
2023/09/05 05:07:44;;;;;;;8.60;6.10;;;;;;;14.77;79.82;102282.38;7389254;19;21586;-68
2023/09/05 05:10:13;;;;;;;9.75;5.68;;;;;;;14.74;80.06;102282.72;7393713;19;20317;-68
2023/09/05 05:12:42;;;;;;;9.32;6.20;;;;;;;14.74;79.91;102276.44;7394504;19;19923;-68
2023/09/05 05:15:12;;;;;;;6.93;5.95;;;;;;;14.72;80.19;102276.59;7392779;19;20366;-68
2023/09/05 05:17:40;;;;;;;9.23;6.68;;;;;;;14.73;80.22;102277.44;7395260;19;19927;-68
2023/09/05 05:20:10;;;;;;;10.32;6.80;;;;;;;14.73;79.92;102280.16;7393469;19;19930;-68
2023/09/05 05:22:39;;;;;;;7.57;5.47;;;;;;;14.75;80.24;102281.72;7396002;19;19950;-69
2023/09/05 05:25:11;;;;;;;8.98;5.95;;;;;;;14.78;80.34;102281.34;7390759;19;20318;-68
2023/09/05 05:27:40;;;;;;;11.30;5.82;;;;;;;14.81;80.35;102283.72;7393263;19;19990;-68
2023/09/05 05:30:29;;;;;;;9.55;5.47;;;;;;;14.82;80.22;102288.13;7394745;19;20336;-68
2023/09/05 05:32:58;;;;;;;8.45;5.85;;;;;;;14.85;80.48;102292.34;7396104;19;19930;-68
2023/09/05 05:35:26;;;;;;;8.13;6.00;;;;;;;14.88;80.34;102279.31;7391205;19;19923;-68
2023/09/05 05:37:55;;;;;;;8.00;6.10;;;;;;;14.87;80.52;102269.47;7391009;19;19953;-68
2023/09/05 05:40:27;;;;;;;10.20;6.90;;;;;;;14.90;80.46;102265.56;7394294;19;19923;-68
2023/09/05 05:42:56;;;;;;;10.98;5.80;;;;;;;14.93;80.74;102265.22;7393456;19;20005;-69
2023/09/05 05:45:49;;;;;;;10.75;5.85;;;;;;;14.99;80.85;102256.41;7392742;19;20008;-68
2023/09/05 05:48:18;;;;;;;9.35;6.95;;;;;;;15.07;80.68;102256.38;7393328;19;19922;-68
2023/09/05 05:50:47;;;;;;;10.18;6.57;;;;;;;15.13;80.55;102255.69;7394426;19;19927;-68
2023/09/05 05:53:16;;;;;;;7.93;5.72;;;;;;;15.19;80.23;102256.84;7393999;19;19930;-69
2023/09/05 05:55:47;;;;;;;9.48;7.10;;;;;;;15.22;80.69;102259.25;7393923;19;19945;-69
2023/09/05 05:58:16;;;;;;;10.23;6.25;;;;;;;15.25;80.19;102267.03;7395482;19;19923;-68
2023/09/05 06:00:50;;;;;;;10.30;6.57;;;;;;;15.28;80.70;102263.97;7398016;19;19926;-69
2023/09/05 06:03:19;;;;;;;8.32;6.10;;;;;;;15.33;80.48;102262.44;7396366;19;19918;-69
2023/09/05 06:05:48;;;;;;;7.90;5.78;;;;;;;15.38;80.21;102261.91;7398208;19;20414;-69
2023/09/05 06:08:17;;;;;;;8.45;6.10;;;;;;;15.40;80.34;102257.16;7392386;19;19941;-69
2023/09/05 06:11:08;;;;;;;9.27;5.78;;;;;;;15.41;80.84;102265.13;7399066;19;19970;-69
2023/09/05 06:13:36;;;;;;;8.70;6.65;;;;;;;15.47;80.39;102254.59;7398194;19;19918;-69
2023/09/05 06:16:05;;;;;;;12.65;5.93;;;;;;;15.53;80.29;102256.63;7400477;19;19942;-69
2023/09/05 06:18:34;;;;;;;9.90;6.78;;;;;;;15.57;80.48;102249.84;7398831;19;19922;-69
2023/09/05 06:21:03;;;;;;;9.45;7.13;;;;;;;15.59;80.92;102250.47;7396330;19;19984;-69
2023/09/05 06:23:32;;;;;;;8.32;6.18;;;;;;;15.61;80.50;102245.72;7394989;19;20344;-69
2023/09/05 06:26:01;;;;;;;10.10;6.93;;;;;;;15.64;80.89;102250.81;7385301;19;19926;-69
2023/09/05 06:28:34;;;;;;;11.55;7.20;;;;;;;15.71;80.53;102252.63;7393835;19;19981;-69
2023/09/05 06:31:02;;;;;;;9.15;7.03;;;;;;;15.75;80.85;102255.84;7391842;19;19918;-68
2023/09/05 06:33:31;;;;;;;7.85;5.53;;;;;;;15.80;80.17;102253.44;7391385;19;20346;-69
2023/09/05 06:36:00;;;;;;;7.88;6.05;;;;;;;15.87;80.55;102260.72;7387913;19;19926;-69
2023/09/05 06:38:29;;;;;;;9.32;7.22;;;;;;;15.93;80.66;102270.03;7393398;19;20296;-69
2023/09/05 06:40:57;;;;;;;8.43;5.97;;;;;;;15.99;80.77;102254.88;7397902;19;19922;-69
2023/09/05 06:43:28;;;;;;;8.70;6.75;;;;;;;16.06;80.29;102258.56;7397862;19;20309;-69
2023/09/05 06:46:05;;;;;;;9.85;6.00;;;;;;;16.09;80.46;102258.22;7398891;19;20404;-69
2023/09/05 06:48:36;;;;;;;11.30;7.07;;;;;;;16.20;79.98;102268.69;7398617;19;19923;-68
2023/09/05 06:51:05;;;;;;;8.52;6.13;;;;;;;16.26;79.90;102271.53;7395143;19;20643;-69
2023/09/05 06:53:35;;;;;;;8.00;6.45;;;;;;;16.33;80.10;102272.50;7393990;19;19923;-69
2023/09/05 06:56:03;;;;;;;9.73;7.25;;;;;;;16.38;80.18;102282.84;7393791;19;21442;-69
2023/09/05 06:58:52;;;;;;;9.27;6.43;;;;;;;16.43;80.26;102282.31;7395325;19;20275;-69
2023/09/05 07:01:23;;;;;;;7.78;5.93;;;;;;;16.49;80.23;102282.41;7391476;19;19934;-69
2023/09/05 07:04:13;;;;;;;8.98;6.18;;;;;;;16.55;80.41;102287.13;7391762;19;19936;-69
2023/09/05 07:06:42;;;;;;;9.60;6.10;;;;;;;16.63;80.08;102289.81;7393866;19;20524;-69
2023/09/05 07:09:10;;;;;;;8.10;6.68;;;;;;;16.69;79.99;102283.66;7391774;19;19978;-69
2023/09/05 07:11:59;;;;;;;8.80;6.50;;;;;;;16.77;80.01;102280.03;7395168;19;20181;-69
2023/09/05 07:14:28;;;;;;;9.80;6.90;;;;;;;16.85;79.77;102288.09;7396817;19;19955;-69
2023/09/05 07:16:59;;;;;;;8.18;6.65;;;;;;;16.93;79.71;102281.75;7395533;19;19949;-69
2023/09/05 07:19:29;;;;;;;10.38;6.63;;;;;;;16.98;79.44;102291.06;7395221;19;19958;-69
2023/09/05 07:21:57;;;;;;;9.93;6.82;;;;;;;17.06;78.88;102293.69;7397792;19;20400;-70
2023/09/05 07:24:26;;;;;;;11.43;6.22;;;;;;;17.12;79.08;102295.69;7371378;19;19915;-69
2023/09/05 07:26:55;;;;;;;16.25;7.03;;;;;;;17.17;78.70;102301.41;7393501;19;20272;-69
2023/09/05 07:29:26;;;;;;;9.77;6.47;;;;;;;17.23;78.69;102300.66;7392113;19;19922;-69
2023/09/05 07:31:54;;;;;;;10.50;6.50;;;;;;;17.30;78.50;102297.22;7378304;19;20386;-68
2023/09/05 07:34:26;;;;;;;9.35;6.65;;;;;;;17.39;78.74;102307.81;7388680;19;20303;-70
2023/09/05 07:36:54;;;;;;;7.68;5.82;;;;;;;17.46;78.13;102300.59;7396158;19;19922;-70
2023/09/05 07:39:24;;;;;;;8.80;6.35;;;;;;;17.53;77.98;102301.53;7392749;19;20534;-69
2023/09/05 07:41:52;;;;;;;8.18;6.28;;;;;;;17.61;78.62;102301.47;7392775;19;19925;-69
2023/09/05 07:44:22;;;;;;;9.07;5.60;;;;;;;17.69;77.97;102295.91;7394383;19;19922;-69
2023/09/05 07:46:50;;;;;;;9.60;6.55;;;;;;;17.77;78.24;102292.25;7393561;19;19919;-69
2023/09/05 07:49:42;;;;;;;10.27;6.22;;;;;;;17.86;78.31;102303.91;7393333;19;19926;-70
2023/09/05 07:52:11;;;;;;;9.93;6.13;;;;;;;17.92;77.96;102301.25;7391686;19;19926;-70
2023/09/05 07:54:40;;;;;;;11.38;6.50;;;;;;;18.00;77.59;102303.03;7395151;19;19927;-69
2023/09/05 07:57:09;;;;;;;8.63;6.47;;;;;;;18.05;78.45;102306.03;7394403;19;19936;-69
2023/09/05 07:59:37;;;;;;;13.02;6.88;;;;;;;18.11;78.12;102297.09;7390740;19;19926;-70
2023/09/05 08:02:06;;;;;;;8.57;6.38;;;;;;;18.20;77.70;102295.09;7389468;19;19926;-69
2023/09/05 08:04:37;;;;;;;10.35;6.00;;;;;;;18.27;77.97;102302.31;7394174;19;19943;-69
2023/09/05 08:07:08;;;;;;;8.55;5.82;;;;;;;18.33;77.57;102293.38;7387958;19;19922;-69
2023/09/05 08:09:37;;;;;;;;;;;;;;;18.24;78.69;102297.25;7392372;19;19927;-69
2023/09/05 08:12:06;;;;;;;9.05;5.72;;;;;;;18.44;77.79;102289.25;7370283;19;19922;-70
2023/09/05 08:14:35;;;;;;;10.05;6.20;;;;;;;18.54;78.08;102295.28;7386409;19;19926;-69
2023/09/05 08:17:03;;;;;;;9.55;5.47;;;;;;;18.63;77.91;102288.66;7384804;19;19927;-69
2023/09/05 08:19:33;;;;;;;5.95;4.82;;;;;;;18.75;77.10;102297.16;7370459;19;20272;-69
2023/09/05 08:22:02;;;;;;;6.13;5.13;;;;;;;18.83;76.07;102297.88;7377098;19;20305;-69
2023/09/05 08:24:54;;;;;;;11.80;5.50;;;;;;;18.90;75.96;102306.09;7390399;19;19934;-71
2023/09/05 08:27:28;;;;;;;8.55;5.43;;;;;;;18.99;75.93;102307.66;7372447;19;19929;-69
2023/09/05 08:29:58;;;;;;;9.10;5.63;;;;;;;19.09;75.71;102299.97;7370985;19;20698;-70
2023/09/05 08:32:28;;;;;;;8.00;5.22;;;;;;;19.18;76.01;102298.78;7384510;19;19975;-69
2023/09/05 08:34:57;;;;;;;7.75;5.25;;;;;;;19.29;75.33;102309.16;7385335;19;19935;-69
2023/09/05 08:37:26;;;;;;;6.38;5.25;;;;;;;19.41;75.52;102310.31;7379943;19;19956;-69
2023/09/05 08:39:58;;;;;;;8.35;5.40;;;;;;;19.53;74.15;102302.41;7387801;19;19926;-69
2023/09/05 08:42:27;;;;;;;8.73;5.45;;;;;;;19.64;74.50;102301.00;7386047;19;19930;-69
2023/09/05 08:44:58;;;;;;;9.43;5.82;;;;;;;19.76;75.82;102311.16;7380988;19;19948;-69
2023/09/05 08:47:27;;;;;;;7.85;5.32;;;;;;;19.86;75.22;102302.59;7374835;19;20244;-69
2023/09/05 08:49:55;;;;;;;6.93;5.50;;;;;;;19.97;75.36;102303.91;7373992;19;19926;-69
2023/09/05 08:52:45;;;;;;;9.23;5.72;;;;;;;20.08;74.18;102295.94;7368307;19;19918;-69
2023/09/05 08:55:18;;;;;;;8.18;5.47;;;;;;;20.17;74.65;102289.25;7375405;19;19923;-70
2023/09/05 08:58:07;;;;;;;7.68;5.63;;;;;;;20.27;73.88;102289.72;7392089;19;20190;-69
2023/09/05 09:00:36;;;;;;;7.95;5.43;;;;;;;20.37;72.63;102289.31;7392404;19;19942;-70
2023/09/05 09:03:26;;;;;;;8.10;5.13;;;;;;;20.47;73.38;102289.78;7393492;19;19921;-69
2023/09/05 09:05:55;;;;;;;7.50;6.10;;;;;;;20.57;73.86;102290.22;7389832;19;19923;-70
2023/09/05 09:08:23;;;;;;;9.18;5.68;;;;;;;20.70;73.48;102294.88;7392945;19;19919;-69
2023/09/05 09:11:10;;;;;;;8.30;5.70;;;;;;;20.80;73.30;102287.91;7385025;19;19927;-69
2023/09/05 09:13:39;;;;;;;7.55;5.88;;;;;;;20.97;73.13;102288.31;7379389;19;19923;-70
2023/09/05 09:16:08;;;;;;;7.95;5.47;;;;;;;21.11;72.72;102289.16;7389760;19;20135;-70
2023/09/05 09:18:40;;;;;;;8.15;5.47;;;;;;;21.22;72.82;102283.09;7394715;19;20295;-69
2023/09/05 09:21:29;;;;;;;7.13;5.85;;;;;;;21.34;71.31;102278.63;7391815;19;19919;-69
2023/09/05 09:24:03;;;;;;;8.85;5.97;;;;;;;21.47;72.24;102281.34;7393423;19;19986;-69
2023/09/05 09:26:34;;;;;;;7.68;5.70;;;;;;;21.59;71.71;102278.78;7393398;19;19925;-69
2023/09/05 09:29:03;;;;;;;8.63;5.10;;;;;;;21.71;70.84;102286.13;7390184;19;19942;-69
2023/09/05 09:31:32;;;;;;;8.07;5.53;;;;;;;21.83;71.05;102282.72;7394126;19;20274;-69
2023/09/05 09:34:01;;;;;;;8.93;5.93;;;;;;;21.93;70.40;102283.13;7391901;19;19927;-69
2023/09/05 09:36:35;;;;;;;9.05;6.03;;;;;;;22.05;69.93;102281.38;7399899;19;20422;-69
2023/09/05 09:39:09;;;;;;;7.18;5.35;;;;;;;22.14;68.81;102271.81;7396725;19;19923;-69
2023/09/05 09:41:46;;;;;;;7.93;5.05;;;;;;;22.24;68.45;102277.69;7399986;19;19923;-69
2023/09/05 09:44:27;;;;;;;7.68;5.28;;;;;;;22.34;68.01;102266.22;7399667;19;19918;-70
2023/09/05 09:46:58;;;;;;;9.10;4.47;;;;;;;22.45;69.02;102266.34;7399193;19;19935;-69
2023/09/05 09:49:28;;;;;;;7.80;5.15;;;;;;;22.58;68.99;102260.75;7399589;19;19930;-69
2023/09/05 09:51:58;;;;;;;6.65;4.70;;;;;;;22.67;69.37;102257.75;7398575;19;19922;-70
2023/09/05 09:54:49;;;;;;;7.20;4.18;;;;;;;22.80;68.93;102265.91;7395812;19;19933;-70
2023/09/05 09:57:28;;;;;;;6.30;4.60;;;;;;;22.93;69.08;102265.81;7399827;19;19954;-69
2023/09/05 10:00:03;;;;;;;6.78;3.92;;;;;;;23.05;67.78;102256.59;7389004;19;19937;-69
2023/09/05 10:02:32;;;;;;;6.35;3.80;;;;;;;23.19;67.68;102270.22;7386109;19;19931;-69
2023/09/05 10:05:24;;;;;;;6.78;4.47;;;;;;;23.32;67.87;102257.16;7389167;19;20348;-70
2023/09/05 10:07:55;;;;;;;5.80;4.43;;;;;;;23.44;65.86;102255.38;7390936;19;19926;-68
2023/09/05 10:10:25;;;;;;;8.23;4.25;;;;;;;23.55;66.83;102252.94;7396179;19;19922;-69
2023/09/05 10:12:58;;;;;;;6.35;4.10;;;;;;;23.66;66.49;102247.50;7397413;19;19942;-72
2023/09/05 10:15:28;;;;;;;5.20;3.53;;;;;;;23.79;66.32;102244.59;7397254;19;19918;-71
2023/09/05 10:17:59;;;;;;;7.53;3.63;;;;;;;23.93;65.86;102245.25;7385104;19;19915;-70
2023/09/05 10:20:30;;;;;;;4.30;3.53;;;;;;;24.06;65.77;102242.31;7391963;19;19946;-70
2023/09/05 10:22:58;;;;;;;5.63;3.53;;;;;;;24.20;65.35;102251.28;7396490;19;19973;-70
2023/09/05 10:25:28;;;;;;;4.70;3.13;;;;;;;24.32;64.26;102250.25;7397622;19;20312;-70
2023/09/05 10:28:00;;;;;;;5.53;3.28;;;;;;;24.44;62.65;102246.66;7395243;19;19960;-69
2023/09/05 10:30:31;;;;;;;4.28;3.03;;;;;;;24.58;63.95;102245.38;7396112;19;20492;-70
2023/09/05 10:33:01;;;;;;;4.35;2.92;;;;;;;24.68;62.54;102243.72;7398123;19;19922;-70
2023/09/05 10:35:33;;;;;;;4.72;2.70;;;;;;;24.80;63.08;102246.50;7398180;19;20244;-69
2023/09/05 10:38:03;;;;;;;4.50;2.47;;;;;;;24.90;62.46;102241.25;7394184;19;19925;-70
2023/09/05 10:40:36;;;;;;;3.30;2.70;;;;;;;25.02;61.83;102242.13;7398419;19;19926;-69
2023/09/05 10:43:09;;;;;;;5.95;2.72;;;;;;;25.13;60.41;102243.19;7388563;19;19998;-70
2023/09/05 10:45:40;;;;;;;4.18;2.75;;;;;;;25.22;60.95;102233.47;7394722;19;19922;-70
2023/09/05 10:48:15;;;;;;;3.80;2.42;;;;;;;25.36;60.73;102221.09;7396732;19;19922;-70
2023/09/05 10:51:10;;;;;;;2.25;2.05;;;;;;;25.50;59.99;102216.16;7395486;19;20009;-70
2023/09/05 10:53:39;;;;;;;3.40;2.47;;;;;;;25.62;59.77;102209.56;7385009;19;20037;-70
2023/09/05 10:56:28;;;;;;;3.53;2.13;;;;;;;25.75;59.15;102211.19;7394042;19;19927;-70
2023/09/05 10:59:00;;;;;;;2.80;1.80;;;;;;;25.89;58.49;102201.53;7394994;19;19914;-70
2023/09/05 11:01:44;;;;;;;4.13;2.15;;;;;;;26.00;57.71;102203.41;7392504;19;19929;-69
2023/09/05 11:04:34;;;;;;;3.67;1.63;;;;;;;26.11;57.35;102193.38;7394917;19;19922;-70
2023/09/05 11:07:03;;;;;;;5.10;2.40;;;;;;;26.21;56.67;102199.13;7393600;19;19951;-69
2023/09/05 11:09:41;;;;;;;4.88;2.40;;;;;;;26.33;56.38;102199.03;7392787;19;19926;-71
2023/09/05 11:12:10;;;;;;;3.50;2.05;;;;;;;26.47;57.04;102192.13;7393808;19;19923;-69
2023/09/05 11:14:46;;;;;;;4.45;2.15;;;;;;;26.57;55.61;102190.38;7394040;19;20001;-69
2023/09/05 11:17:20;;;;;;;4.30;2.20;;;;;;;26.67;53.94;102186.06;7396823;19;20265;-70
2023/09/05 11:19:50;;;;;;;3.60;2.20;;;;;;;26.79;54.77;102187.69;7393396;19;19931;-70
2023/09/05 11:22:22;;;;;;;6.03;2.13;;;;;;;26.92;54.95;102189.28;7395983;19;19921;-70
2023/09/05 11:24:52;;;;;;;5.13;1.95;;;;;;;27.03;54.46;102188.34;7395775;19;20287;-69
2023/09/05 11:27:23;;;;;;;2.45;1.85;;;;;;;27.14;53.59;102183.78;7393032;19;19926;-69
2023/09/05 11:29:55;;;;;;;2.92;1.83;;;;;;;27.23;52.00;102196.06;7390679;19;19923;-70
2023/09/05 11:32:31;;;;;;;2.28;1.80;;;;;;;27.33;50.55;102185.97;7395486;19;19918;-69
2023/09/05 11:35:02;;;;;;;1.73;1.63;;;;;;;27.44;52.87;102192.50;7392647;19;19918;-69
2023/09/05 11:37:31;;;;;;;3.50;2.00;;;;;;;27.53;50.59;102190.97;7391290;19;19930;-69
2023/09/05 11:40:12;;;;;;;2.60;1.73;;;;;;;27.63;50.84;102188.31;7393682;19;19935;-69
2023/09/05 11:42:40;;;;;;;2.67;1.40;;;;;;;27.79;50.88;102192.94;7394399;19;19974;-70
2023/09/05 11:45:21;;;;;;;3.80;2.03;;;;;;;27.88;49.14;102185.84;7391416;19;19929;-69
2023/09/05 11:47:52;;;;;;;2.47;1.95;;;;;;;28.00;49.19;102182.09;7396323;19;20466;-70
2023/09/05 11:50:22;;;;;;;4.00;2.03;;;;;;;28.14;50.83;102192.50;7393631;19;19942;-69